Time;durP1;ratioP1;P1;durP2;ratioP2;P2;SDS_P1;SDS_P2;PMS_P1;PMS_P2;Temp;Humidity;BMP_temperature;BMP_pressure;BME280_temperature;BME280_humidity;BME280_pressure;Samples;Min_cycle;Max_cycle;Signal;HPM_P1;HPM_P2
2023/03/21 00:00:14;;;;;;;;;;;10.20;78.10;;;;;;5087132;28;19912;-77
2023/03/21 00:02:40;;;;;;;;;;;10.10;78.30;;;;;;5086449;28;20306;-77
2023/03/21 00:05:05;;;;;;;;;;;10.10;78.30;;;;;;5076029;28;19934;-77
2023/03/21 00:07:31;;;;;;;;;;;10.10;78.40;;;;;;5107728;28;19908;-77
2023/03/21 00:09:56;;;;;;;;;;;10.20;78.10;;;;;;5097481;28;19919;-77
2023/03/21 00:12:22;;;;;;;;;;;10.20;78.10;;;;;;5082714;28;19912;-77
2023/03/21 00:14:47;;;;;;;;;;;10.20;78.20;;;;;;5088526;28;19951;-77
2023/03/21 00:17:14;;;;;;;;;;;10.20;77.80;;;;;;5073182;28;19956;-77
2023/03/21 00:19:40;;;;;;;;;;;10.30;77.80;;;;;;5095997;28;19916;-77
2023/03/21 00:22:06;;;;;;;;;;;10.20;78.10;;;;;;5102834;28;20410;-76
2023/03/21 00:24:31;;;;;;;;;;;10.20;78.10;;;;;;5093550;28;19916;-77
2023/03/21 00:26:57;;;;;;;;;;;10.30;77.70;;;;;;5103943;28;19918;-77
2023/03/21 00:29:22;;;;;;;;;;;10.30;77.40;;;;;;5099525;28;19919;-77
2023/03/21 00:31:48;;;;;;;;;;;10.30;77.40;;;;;;5085235;28;19915;-77
2023/03/21 00:34:13;;;;;;;;;;;10.30;77.10;;;;;;5100625;28;19958;-77
2023/03/21 00:36:39;;;;;;;;;;;10.40;77.10;;;;;;5103113;28;20328;-77
2023/03/21 00:39:05;;;;;;;;;;;10.40;76.90;;;;;;5089870;28;19934;-77
2023/03/21 00:41:31;;;;;;;;;;;10.30;76.90;;;;;;5073707;28;19919;-77
2023/03/21 00:43:56;;;;;;;;;;;10.30;77.10;;;;;;5070688;28;20367;-77
2023/03/21 00:46:21;;;;;;;;;;;10.30;77.00;;;;;;5096747;28;19944;-77
2023/03/21 00:48:47;;;;;;;;;;;10.40;77.40;;;;;;5086865;28;20002;-77
2023/03/21 00:51:16;;;;;;;;;;;10.40;76.80;;;;;;5089263;28;19920;-77
2023/03/21 00:53:42;;;;;;;;;;;10.40;76.40;;;;;;5081132;28;19915;-77
2023/03/21 00:56:07;;;;;;;;;;;10.40;76.30;;;;;;5091007;28;20325;-77
2023/03/21 00:58:33;;;;;;;;;;;10.40;76.30;;;;;;5087256;28;19920;-77
2023/03/21 01:01:01;;;;;;;;;;;10.30;76.20;;;;;;5079615;28;19916;-77
2023/03/21 01:03:27;;;;;;;;;;;10.30;75.90;;;;;;5089541;28;19970;-77
2023/03/21 01:06:05;;;;;;;;;;;10.40;75.90;;;;;;5098379;28;19930;-77
2023/03/21 01:08:35;;;;;;;;;;;10.40;75.60;;;;;;5099470;28;20333;-77
2023/03/21 01:11:02;;;;;;;;;;;10.40;75.80;;;;;;5086149;28;19931;-77
2023/03/21 01:13:27;;;;;;;;;;;10.40;75.30;;;;;;5095286;28;19916;-78
2023/03/21 01:15:54;;;;;;;;;;;10.40;75.00;;;;;;5084568;28;20286;-78
2023/03/21 01:18:22;;;;;;;;;;;10.50;74.60;;;;;;5089177;28;19912;-77
2023/03/21 01:20:48;;;;;;;;;;;10.50;74.70;;;;;;5106776;28;19923;-77
2023/03/21 01:23:14;;;;;;;;;;;10.50;74.70;;;;;;5073441;28;20375;-77
2023/03/21 01:25:40;;;;;;;;;;;10.40;74.70;;;;;;5091099;28;19999;-77
2023/03/21 01:28:06;;;;;;;;;;;10.40;74.80;;;;;;5087238;28;20007;-77
2023/03/21 01:30:31;;;;;;;;;;;10.50;74.80;;;;;;5093104;28;19964;-77
2023/03/21 01:32:57;;;;;;;;;;;10.60;74.60;;;;;;5088906;28;20344;-77
2023/03/21 01:35:22;;;;;;;;;;;10.50;74.90;;;;;;5092696;28;19908;-77
2023/03/21 01:37:48;;;;;;;;;;;10.50;74.50;;;;;;5072449;28;19916;-77
2023/03/21 01:40:21;;;;;;;;;;;10.60;74.40;;;;;;5112714;22;20363;-79
2023/03/21 01:42:46;;;;;;;;;;;10.50;75.00;;;;;;5058220;28;20402;-79
2023/03/21 01:45:30;;;;;;;;;;;10.50;74.90;;;;;;5077839;28;19927;-78
2023/03/21 01:47:55;;;;;;;;;;;10.50;75.60;;;;;;5078435;28;19912;-79
2023/03/21 01:50:21;;;;;;;;;;;10.50;75.40;;;;;;5091288;28;19916;-79
2023/03/21 01:52:48;;;;;;;;;;;10.50;75.50;;;;;;5070805;28;19923;-79
2023/03/21 01:55:15;;;;;;;;;;;10.60;75.60;;;;;;5066539;28;19913;-80
2023/03/21 01:57:51;;;;;;;;;;;10.50;75.60;;;;;;5078640;28;20003;-79
2023/03/21 02:00:19;;;;;;;;;;;10.50;75.80;;;;;;5079494;28;20003;-79
2023/03/21 02:02:54;;;;;;;;;;;10.40;75.90;;;;;;5066874;28;19909;-79
2023/03/21 02:05:32;;;;;;;;;;;10.50;76.00;;;;;;5072519;28;19920;-80
2023/03/21 02:07:58;;;;;;;;;;;10.40;76.70;;;;;;5078392;28;19947;-79
2023/03/21 02:10:24;;;;;;;;;;;10.50;76.80;;;;;;5077957;28;19916;-80
2023/03/21 02:12:50;;;;;;;;;;;10.50;76.70;;;;;;5089059;28;19912;-80
2023/03/21 02:15:15;;;;;;;;;;;10.40;77.00;;;;;;5075873;28;19983;-79
2023/03/21 02:17:47;;;;;;;;;;;10.40;77.30;;;;;;5097317;28;19952;-79
2023/03/21 02:20:31;;;;;;;;;;;10.30;77.70;;;;;;5102672;28;19908;-80
2023/03/21 02:23:15;;;;;;;;;;;10.30;77.70;;;;;;5099351;28;19912;-79
2023/03/21 02:25:40;;;;;;;;;;;10.30;77.50;;;;;;5081583;28;19923;-80
2023/03/21 02:28:06;;;;;;;;;;;10.30;77.70;;;;;;5090155;28;19912;-79
2023/03/21 02:30:56;;;;;;;;;;;10.30;77.90;;;;;;5098282;28;19916;-80
2023/03/21 02:33:24;;;;;;;;;;;10.30;78.00;;;;;;5088041;28;20343;-80
2023/03/21 02:36:02;;;;;;;;;;;10.30;78.10;;;;;;5079908;28;19912;-81
2023/03/21 02:38:29;;;;;;;;;;;10.30;78.20;;;;;;5098422;28;19919;-79
2023/03/21 02:41:00;;;;;;;;;;;10.20;78.60;;;;;;5079893;28;20030;-79
2023/03/21 02:43:36;;;;;;;;;;;10.30;78.20;;;;;;5071398;28;19930;-79
2023/03/21 02:46:07;;;;;;;;;;;10.20;78.50;;;;;;5071883;28;19912;-80
2023/03/21 02:48:38;;;;;;;;;;;10.20;78.70;;;;;;5069996;28;19913;-79
2023/03/21 02:51:03;;;;;;;;;;;10.20;78.60;;;;;;5075151;28;19916;-79
2023/03/21 02:53:32;;;;;;;;;;;10.10;78.80;;;;;;5083960;28;19916;-79
2023/03/21 02:55:58;;;;;;;;;;;10.10;78.90;;;;;;5080333;28;19919;-79
2023/03/21 02:58:26;;;;;;;;;;;10.20;78.80;;;;;;5076005;28;19915;-79
2023/03/21 03:00:54;;;;;;;;;;;10.20;78.80;;;;;;5076906;28;19916;-79
2023/03/21 03:03:19;;;;;;;;;;;10.10;78.90;;;;;;5087647;28;19919;-79
2023/03/21 03:05:50;;;;;;;;;;;10.10;78.90;;;;;;5088936;28;19911;-79
2023/03/21 03:08:26;;;;;;;;;;;10.10;79.00;;;;;;5083719;28;19924;-79
2023/03/21 03:10:57;;;;;;;;;;;10.10;79.20;;;;;;5074958;28;19955;-78
2023/03/21 03:13:22;;;;;;;;;;;10.10;79.20;;;;;;5080163;28;19913;-79
2023/03/21 03:16:14;;;;;;;;;;;10.20;79.20;;;;;;5070767;28;19913;-79
2023/03/21 03:18:56;;;;;;;;;;;10.10;79.20;;;;;;5098456;28;19908;-80
2023/03/21 03:21:33;;;;;;;;;;;10.20;79.30;;;;;;5068681;28;20286;-79
2023/03/21 03:24:04;;;;;;;;;;;10.20;79.10;;;;;;5084937;28;19912;-79
2023/03/21 03:26:32;;;;;;;;;;;10.10;79.40;;;;;;5098931;28;19940;-80
2023/03/21 03:29:00;;;;;;;;;;;10.10;79.80;;;;;;5090599;28;19913;-79
2023/03/21 03:31:30;;;;;;;;;;;10.10;79.90;;;;;;5100046;28;19920;-78
2023/03/21 03:33:57;;;;;;;;;;;10.10;79.90;;;;;;5098822;28;19915;-79
2023/03/21 03:36:26;;;;;;;;;;;10.10;80.10;;;;;;5101425;28;19916;-79
2023/03/21 03:38:52;;;;;;;;;;;10.10;80.20;;;;;;5083458;28;19953;-79
2023/03/21 03:41:23;;;;;;;;;;;10.10;80.30;;;;;;5082009;28;20375;-79
2023/03/21 03:43:51;;;;;;;;;;;10.00;80.40;;;;;;5086750;28;19987;-79
2023/03/21 03:46:22;;;;;;;;;;;10.10;80.50;;;;;;5075800;28;19940;-80
2023/03/21 03:48:51;;;;;;;;;;;10.00;80.80;;;;;;5082296;28;20287;-81
2023/03/21 03:51:43;;;;;;;;;;;10.00;80.80;;;;;;5081032;28;19967;-80
2023/03/21 03:54:11;;;;;;;;;;;10.00;80.90;;;;;;5082179;28;19912;-80
2023/03/21 03:56:37;;;;;;;;;;;9.90;81.10;;;;;;5104693;28;19943;-79
2023/03/21 03:59:03;;;;;;;;;;;10.00;81.50;;;;;;5102076;28;19948;-80
2023/03/21 04:01:29;;;;;;;;;;;9.90;81.40;;;;;;5078680;28;19919;-80
2023/03/21 04:03:54;;;;;;;;;;;10.00;81.50;;;;;;5064065;28;19909;-79
2023/03/21 04:06:21;;;;;;;;;;;10.00;81.30;;;;;;5075280;28;20002;-79
2023/03/21 04:08:47;;;;;;;;;;;10.00;81.30;;;;;;5083434;28;19920;-79
2023/03/21 04:11:14;;;;;;;;;;;10.00;81.20;;;;;;5076984;28;20134;-80
2023/03/21 04:13:40;;;;;;;;;;;10.00;81.30;;;;;;5078850;28;19912;-80
2023/03/21 04:16:05;;;;;;;;;;;10.00;81.30;;;;;;5079038;28;19950;-80
2023/03/21 04:18:31;;;;;;;;;;;10.00;81.30;;;;;;5068915;28;19920;-80
2023/03/21 04:20:56;;;;;;;;;;;10.00;81.30;;;;;;5076377;28;19912;-80
2023/03/21 04:23:22;;;;;;;;;;;10.00;81.30;;;;;;5070265;28;20389;-80
2023/03/21 04:25:49;;;;;;;;;;;10.00;81.40;;;;;;5094349;28;19931;-79
2023/03/21 04:28:15;;;;;;;;;;;10.00;81.40;;;;;;5091770;28;19920;-80
2023/03/21 04:30:40;;;;;;;;;;;10.00;81.50;;;;;;5075596;28;20136;-80
2023/03/21 04:33:06;;;;;;;;;;;10.00;81.50;;;;;;5097533;28;19912;-80
2023/03/21 04:35:33;;;;;;;;;;;10.00;81.50;;;;;;5073707;28;19999;-80
2023/03/21 04:37:58;;;;;;;;;;;10.00;81.70;;;;;;5064500;28;19912;-80
2023/03/21 04:40:24;;;;;;;;;;;9.90;81.50;;;;;;5090134;28;19916;-80
2023/03/21 04:42:50;;;;;;;;;;;9.90;81.80;;;;;;5087478;28;20474;-80
2023/03/21 04:45:16;;;;;;;;;;;9.90;82.00;;;;;;5065969;28;19955;-79
2023/03/21 04:47:41;;;;;;;;;;;9.90;81.90;;;;;;5065046;28;19915;-80
2023/03/21 04:50:07;;;;;;;;;;;9.90;82.00;;;;;;5090699;28;19923;-79
2023/03/21 04:52:33;;;;;;;;;;;9.80;82.00;;;;;;5072513;28;20003;-79
2023/03/21 04:54:59;;;;;;;;;;;9.90;82.20;;;;;;5071029;28;20335;-80
2023/03/21 04:57:25;;;;;;;;;;;10.00;82.00;;;;;;5067506;28;20227;-80
2023/03/21 04:59:51;;;;;;;;;;;10.00;81.80;;;;;;5069021;28;19993;-80
2023/03/21 05:02:16;;;;;;;;;;;10.00;81.60;;;;;;5069183;28;20386;-80
2023/03/21 05:04:42;;;;;;;;;;;10.00;81.70;;;;;;5075023;28;19919;-80
2023/03/21 05:07:07;;;;;;;;;;;10.00;81.80;;;;;;5077909;28;19912;-80
2023/03/21 05:09:33;;;;;;;;;;;10.00;81.80;;;;;;5070160;28;19911;-80
2023/03/21 05:11:59;;;;;;;;;;;10.10;81.70;;;;;;5070083;28;20008;-80
2023/03/21 05:14:25;;;;;;;;;;;10.00;81.60;;;;;;5064738;28;19921;-79
2023/03/21 05:16:55;;;;;;;;;;;10.00;81.30;;;;;;5090324;28;20569;-80
2023/03/21 05:19:21;;;;;;;;;;;10.00;81.50;;;;;;5087617;28;19965;-80
2023/03/21 05:21:47;;;;;;;;;;;10.00;81.50;;;;;;5070633;28;19917;-80
2023/03/21 05:24:14;;;;;;;;;;;10.00;81.00;;;;;;5093654;28;19952;-79
2023/03/21 05:26:40;;;;;;;;;;;10.10;80.90;;;;;;5089603;28;19947;-80
2023/03/21 05:29:06;;;;;;;;;;;10.10;80.70;;;;;;5072733;28;19916;-80
2023/03/21 05:31:31;;;;;;;;;;;10.10;80.50;;;;;;5090604;28;19973;-80
2023/03/21 05:33:57;;;;;;;;;;;10.20;80.40;;;;;;5084726;28;19920;-80
2023/03/21 05:36:23;;;;;;;;;;;10.20;80.30;;;;;;5071031;28;19943;-79
2023/03/21 05:38:48;;;;;;;;;;;10.20;80.50;;;;;;5073009;28;20047;-80
2023/03/21 05:41:15;;;;;;;;;;;10.20;80.10;;;;;;5067999;28;19916;-80
2023/03/21 05:43:40;;;;;;;;;;;10.20;80.10;;;;;;5071848;28;19916;-80
2023/03/21 05:46:06;;;;;;;;;;;10.30;79.80;;;;;;5072742;28;19986;-81
2023/03/21 05:48:32;;;;;;;;;;;10.20;79.50;;;;;;5071316;28;19913;-80
2023/03/21 05:50:57;;;;;;;;;;;10.20;79.40;;;;;;5087738;28;19924;-80
2023/03/21 05:53:22;;;;;;;;;;;10.10;79.60;;;;;;5079319;28;19920;-80
2023/03/21 05:55:48;;;;;;;;;;;10.10;79.60;;;;;;5071842;28;19931;-80
2023/03/21 05:58:14;;;;;;;;;;;10.10;79.70;;;;;;5076750;28;19912;-81
2023/03/21 06:00:39;;;;;;;;;;;10.20;79.60;;;;;;5069131;28;19924;-80
2023/03/21 06:03:05;;;;;;;;;;;10.20;79.80;;;;;;5068817;28;20253;-79
2023/03/21 06:05:30;;;;;;;;;;;10.30;79.80;;;;;;5070243;28;20600;-79
2023/03/21 06:07:56;;;;;;;;;;;10.30;79.80;;;;;;5071753;28;19924;-80
2023/03/21 06:10:21;;;;;;;;;;;10.40;79.80;;;;;;5086769;28;20318;-81
2023/03/21 06:12:47;;;;;;;;;;;10.30;80.50;;;;;;5088003;28;19920;-81
2023/03/21 06:15:12;;;;;;;;;;;10.30;80.40;;;;;;5074668;28;19928;-80
2023/03/21 06:17:38;;;;;;;;;;;10.30;80.80;;;;;;5066091;28;20504;-80
2023/03/21 06:20:04;;;;;;;;;;;10.30;81.30;;;;;;5081909;28;20004;-79
2023/03/21 06:22:30;;;;;;;;;;;10.30;81.80;;;;;;5087213;28;19912;-81
2023/03/21 06:24:55;;;;;;;;;;;10.30;82.90;;;;;;5088055;28;19919;-81
2023/03/21 06:27:21;;;;;;;;;;;10.30;82.60;;;;;;5095157;28;19912;-79
2023/03/21 06:29:47;;;;;;;;;;;10.20;82.60;;;;;;5084076;28;20026;-79
2023/03/21 06:32:12;;;;;;;;;;;10.30;82.80;;;;;;5075462;28;19923;-79
2023/03/21 06:34:38;;;;;;;;;;;10.30;82.90;;;;;;5063392;28;19913;-81
2023/03/21 06:37:04;;;;;;;;;;;10.40;82.90;;;;;;5065369;28;20011;-79
2023/03/21 06:39:30;;;;;;;;;;;10.40;82.90;;;;;;5093712;28;19920;-79
2023/03/21 06:41:56;;;;;;;;;;;10.30;83.40;;;;;;5062683;28;19948;-79
2023/03/21 06:44:23;;;;;;;;;;;10.30;83.80;;;;;;5084659;28;19908;-80
2023/03/21 06:46:49;;;;;;;;;;;10.30;84.20;;;;;;5080172;28;19908;-79
2023/03/21 06:49:14;;;;;;;;;;;10.40;83.70;;;;;;5110400;28;19913;-80
2023/03/21 06:51:40;;;;;;;;;;;10.50;84.10;;;;;;5099435;28;19967;-79
2023/03/21 06:54:05;;;;;;;;;;;10.40;84.50;;;;;;5097607;28;19934;-79
2023/03/21 06:56:31;;;;;;;;;;;10.40;84.70;;;;;;5098151;28;20433;-79
2023/03/21 06:58:56;;;;;;;;;;;10.40;84.80;;;;;;5093481;28;19908;-79
2023/03/21 07:01:22;;;;;;;;;;;10.40;84.40;;;;;;5097135;28;20031;-79
2023/03/21 07:03:47;;;;;;;;;;;10.40;84.90;;;;;;5075282;28;19912;-79
2023/03/21 07:06:13;;;;;;;;;;;10.40;84.80;;;;;;5062795;28;19909;-79
2023/03/21 07:08:39;;;;;;;;;;;10.40;84.50;;;;;;5063958;28;19908;-79
2023/03/21 07:11:05;;;;;;;;;;;10.40;84.50;;;;;;5064838;28;19912;-80
2023/03/21 07:13:31;;;;;;;;;;;10.40;85.10;;;;;;5089415;28;19963;-80
2023/03/21 07:15:57;;;;;;;;;;;10.50;85.00;;;;;;5084553;28;19976;-80
2023/03/21 07:18:23;;;;;;;;;;;10.40;84.80;;;;;;5083830;28;19916;-79
2023/03/21 07:20:49;;;;;;;;;;;10.40;85.40;;;;;;5095895;28;20226;-79
2023/03/21 07:23:16;;;;;;;;;;;10.40;85.50;;;;;;5064163;28;19909;-79
2023/03/21 07:25:41;;;;;;;;;;;10.40;85.40;;;;;;5073767;28;19918;-79
2023/03/21 07:28:08;;;;;;;;;;;10.50;85.30;;;;;;5083860;28;19943;-79
2023/03/21 07:30:34;;;;;;;;;;;10.50;85.60;;;;;;5102675;28;19912;-80
2023/03/21 07:32:59;;;;;;;;;;;10.50;85.80;;;;;;5081556;28;19909;-79
2023/03/21 07:35:25;;;;;;;;;;;10.50;85.50;;;;;;5089807;28;19912;-80
2023/03/21 07:37:50;;;;;;;;;;;10.50;85.50;;;;;;5094298;28;19908;-80
2023/03/21 07:40:16;;;;;;;;;;;10.50;84.90;;;;;;5101200;28;19947;-80
2023/03/21 07:42:41;;;;;;;;;;;10.50;84.80;;;;;;5103719;28;19915;-80
2023/03/21 07:45:08;;;;;;;;;;;10.50;84.70;;;;;;5096212;28;19916;-79
2023/03/21 07:47:34;;;;;;;;;;;10.50;84.70;;;;;;5088293;28;19976;-79
2023/03/21 07:49:59;;;;;;;;;;;10.50;84.90;;;;;;5067524;28;20372;-80
2023/03/21 07:52:25;;;;;;;;;;;10.50;84.80;;;;;;5084016;28;19950;-79
2023/03/21 07:54:50;;;;;;;;;;;10.50;85.10;;;;;;5099938;28;19912;-80
2023/03/21 07:57:16;;;;;;;;;;;10.50;85.00;;;;;;5085900;28;19919;-80
2023/03/21 07:59:42;;;;;;;;;;;10.40;85.10;;;;;;5082257;28;19951;-79
2023/03/21 08:02:14;;;;;;;;;;;10.50;84.90;;;;;;5087197;28;19962;-80
2023/03/21 08:04:40;;;;;;;;;;;10.50;84.90;;;;;;5081597;28;20570;-80
2023/03/21 08:07:06;;;;;;;;;;;10.50;85.00;;;;;;5075085;28;19941;-79
2023/03/21 08:09:31;;;;;;;;;;;10.60;85.00;;;;;;5082181;28;19909;-79
2023/03/21 08:11:57;;;;;;;;;;;10.60;85.10;;;;;;5065010;28;19928;-80
2023/03/21 08:14:22;;;;;;;;;;;10.70;84.80;;;;;;5063127;28;20299;-79
2023/03/21 08:16:48;;;;;;;;;;;10.80;84.60;;;;;;5084380;28;19917;-80
2023/03/21 08:19:13;;;;;;;;;;;10.80;84.10;;;;;;5063240;28;19916;-80
2023/03/21 08:21:39;;;;;;;;;;;10.90;84.20;;;;;;5063734;28;19909;-79
2023/03/21 08:24:05;;;;;;;;;;;10.90;84.00;;;;;;5065075;28;20071;-80
2023/03/21 08:26:32;;;;;;;;;;;11.00;83.60;;;;;;5069398;28;19912;-79
2023/03/21 08:28:58;;;;;;;;;;;10.90;82.90;;;;;;5083630;28;19915;-79
2023/03/21 08:31:24;;;;;;;;;;;10.90;83.40;;;;;;5105309;28;19924;-80
2023/03/21 08:33:53;;;;;;;;;;;11.00;83.40;;;;;;5083022;28;19912;-80
2023/03/21 08:36:18;;;;;;;;;;;11.00;83.10;;;;;;5082472;28;19976;-79
2023/03/21 08:38:46;;;;;;;;;;;11.00;83.50;;;;;;5100320;28;19909;-79
2023/03/21 08:41:12;;;;;;;;;;;11.10;83.10;;;;;;5099933;28;19959;-80
2023/03/21 08:43:37;;;;;;;;;;;11.10;83.40;;;;;;5099777;28;19908;-79
2023/03/21 08:46:03;;;;;;;;;;;11.10;83.30;;;;;;5096064;28;19912;-80
2023/03/21 08:48:28;;;;;;;;;;;11.10;83.50;;;;;;5084200;28;19908;-80
2023/03/21 08:50:54;;;;;;;;;;;11.30;83.60;;;;;;5082071;28;19919;-80
2023/03/21 08:53:19;;;;;;;;;;;11.30;83.00;;;;;;5099312;28;20535;-80
2023/03/21 08:55:45;;;;;;;;;;;11.30;83.20;;;;;;5097243;28;19912;-79
2023/03/21 08:58:10;;;;;;;;;;;11.40;82.90;;;;;;5100172;28;19944;-79
2023/03/21 09:00:36;;;;;;;;;;;11.50;83.10;;;;;;5099436;28;19913;-79
2023/03/21 09:03:03;;;;;;;;;;;11.60;83.00;;;;;;5099435;28;19971;-80
2023/03/21 09:05:29;;;;;;;;;;;11.50;83.20;;;;;;5081991;28;19962;-79
2023/03/21 09:07:55;;;;;;;;;;;11.40;83.30;;;;;;5099777;28;19912;-80
2023/03/21 09:10:21;;;;;;;;;;;11.40;83.80;;;;;;5098111;28;19920;-80
2023/03/21 09:12:55;;;;;;;;;;;11.40;83.90;;;;;;5080084;28;20544;-86
2023/03/21 09:15:27;;;;;;;;;;;11.50;84.10;;;;;;5077751;28;19919;-86
2023/03/21 09:17:54;;;;;;;;;;;11.50;83.80;;;;;;5067063;28;19916;-89
2023/03/21 09:20:24;;;;;;;;;;;11.50;84.30;;;;;;5060646;28;19915;-85
2023/03/21 09:22:51;;;;;;;;;;;11.50;84.00;;;;;;5093908;28;19913;-80
2023/03/21 09:25:17;;;;;;;;;;;11.50;84.20;;;;;;5078017;28;19916;-81
2023/03/21 09:27:46;;;;;;;;;;;11.50;84.60;;;;;;5087690;28;19962;-80
2023/03/21 09:30:15;;;;;;;;;;;11.40;84.90;;;;;;5060296;28;19917;-87
2023/03/21 09:32:40;;;;;;;;;;;11.50;84.70;;;;;;5073110;28;20401;-83
2023/03/21 09:35:07;;;;;;;;;;;11.40;84.90;;;;;;5079148;28;19916;-85
2023/03/21 09:37:41;;;;;;;;;;;11.30;85.10;;;;;;5077724;28;20260;-84
2023/03/21 09:40:14;;;;;;;;;;;11.40;85.80;;;;;;5075296;28;20390;-83
2023/03/21 09:42:52;;;;;;;;;;;11.30;85.90;;;;;;5069415;28;19963;-84
2023/03/21 09:45:20;;;;;;;;;;;11.50;86.00;;;;;;5083411;28;19967;-84
2023/03/21 09:47:53;;;;;;;;;;;11.60;86.10;;;;;;5074421;28;19916;-85
2023/03/21 09:50:30;;;;;;;;;;;11.60;85.20;;;;;;5078433;28;19932;-84
2023/03/21 09:53:06;;;;;;;;;;;11.50;85.70;;;;;;5073006;28;20003;-84
2023/03/21 09:55:33;;;;;;;;;;;11.40;85.40;;;;;;5096866;28;19934;-84
2023/03/21 09:57:59;;;;;;;;;;;11.40;85.80;;;;;;5093011;28;19950;-84
2023/03/21 10:00:33;;;;;;;;;;;11.30;86.30;;;;;;5081257;28;19912;-84
2023/03/21 10:03:01;;;;;;;;;;;11.40;86.30;;;;;;5074674;28;19912;-85
2023/03/21 10:05:29;;;;;;;;;;;11.50;86.40;;;;;;5070245;28;19912;-84
2023/03/21 10:08:10;;;;;;;;;;;11.50;86.10;;;;;;5089910;28;19958;-84
2023/03/21 10:10:57;;;;;;;;;;;11.60;86.40;;;;;;5091394;28;19920;-84
2023/03/21 10:13:27;;;;;;;;;;;11.60;86.60;;;;;;5085299;28;20436;-84
2023/03/21 10:15:56;;;;;;;;;;;11.70;86.00;;;;;;5091309;28;19920;-84
2023/03/21 10:18:24;;;;;;;;;;;11.80;85.30;;;;;;5065073;28;19913;-84
2023/03/21 10:20:50;;;;;;;;;;;11.80;85.30;;;;;;5067263;28;20024;-83
2023/03/21 10:23:17;;;;;;;;;;;11.80;84.90;;;;;;5068687;28;19930;-85
2023/03/21 10:25:46;;;;;;;;;;;11.80;84.90;;;;;;5093029;28;19908;-84
2023/03/21 10:28:17;;;;;;;;;;;11.80;85.00;;;;;;5092931;28;20011;-84
2023/03/21 10:30:57;;;;;;;;;;;11.90;84.60;;;;;;5080474;28;19934;-84
2023/03/21 10:33:24;;;;;;;;;;;12.00;84.30;;;;;;5075351;28;19955;-84
2023/03/21 10:35:52;;;;;;;;;;;12.00;83.90;;;;;;5091724;28;19916;-84
2023/03/21 10:38:19;;;;;;;;;;;12.10;84.20;;;;;;5089923;28;19908;-84
2023/03/21 10:40:44;;;;;;;;;;;12.10;83.80;;;;;;5080170;28;19916;-84
2023/03/21 10:43:30;;;;;;;;;;;12.10;83.00;;;;;;5073910;28;19916;-84
2023/03/21 10:45:56;;;;;;;;;;;12.00;83.10;;;;;;5092630;28;20007;-83
2023/03/21 10:48:22;;;;;;;;;;;12.00;83.30;;;;;;5075698;28;19959;-84
2023/03/21 10:50:48;;;;;;;;;;;12.10;83.20;;;;;;5093408;28;21574;-83
2023/03/21 10:53:22;;;;;;;;;;;12.10;82.90;;;;;;5077286;28;19972;-84
2023/03/21 10:55:50;;;;;;;;;;;12.10;82.70;;;;;;5093661;28;19927;-83
2023/03/21 10:58:26;;;;;;;;;;;12.10;82.60;;;;;;5081979;28;19927;-84
2023/03/21 11:01:17;;;;;;;;;;;12.10;83.10;;;;;;5090420;28;19919;-83
2023/03/21 11:03:47;;;;;;;;;;;12.10;82.50;;;;;;5086271;28;19916;-84
2023/03/21 11:06:12;;;;;;;;;;;12.10;82.80;;;;;;5110415;28;19920;-84
2023/03/21 11:08:38;;;;;;;;;;;12.20;82.90;;;;;;5090174;28;19905;-84
2023/03/21 11:11:11;;;;;;;;;;;12.20;82.90;;;;;;5094191;28;19950;-83
2023/03/21 11:13:38;;;;;;;;;;;12.20;82.50;;;;;;5086391;28;19948;-82
2023/03/21 11:16:11;;;;;;;;;;;12.30;83.10;;;;;;5079302;28;19916;-84
2023/03/21 11:18:41;;;;;;;;;;;12.40;82.70;;;;;;5076401;28;20049;-84
2023/03/21 11:21:08;;;;;;;;;;;12.40;82.90;;;;;;5070816;28;19916;-84
2023/03/21 11:23:37;;;;;;;;;;;12.40;82.20;;;;;;5092003;28;20390;-85
2023/03/21 11:26:07;;;;;;;;;;;12.50;82.30;;;;;;5070932;28;19931;-85
2023/03/21 11:28:36;;;;;;;;;;;12.50;82.50;;;;;;5076920;28;19912;-84
2023/03/21 11:31:02;;;;;;;;;;;12.60;82.20;;;;;;5067988;28;19973;-85
2023/03/21 11:33:37;;;;;;;;;;;12.50;82.20;;;;;;5091124;28;19919;-84
2023/03/21 11:36:02;;;;;;;;;;;12.60;82.30;;;;;;5068028;28;20371;-84
2023/03/21 11:38:34;;;;;;;;;;;12.70;82.60;;;;;;5068824;28;19916;-85
2023/03/21 11:41:01;;;;;;;;;;;12.80;81.80;;;;;;5073049;28;19923;-85
2023/03/21 11:43:26;;;;;;;;;;;12.60;82.30;;;;;;5068968;28;20375;-84
2023/03/21 11:46:19;;;;;;;;;;;12.70;81.90;;;;;;5072378;28;19981;-85
2023/03/21 11:48:47;;;;;;;;;;;12.90;81.70;;;;;;5068959;28;19916;-85
2023/03/21 11:51:34;;;;;;;;;;;12.90;81.40;;;;;;5073935;28;19915;-85
2023/03/21 11:54:02;;;;;;;;;;;13.00;81.20;;;;;;5059778;28;19916;-84
2023/03/21 11:56:30;;;;;;;;;;;13.20;80.70;;;;;;5078235;28;19909;-84
2023/03/21 11:59:00;;;;;;;;;;;13.20;80.50;;;;;;5081097;28;19963;-85
2023/03/21 12:01:35;;;;;;;;;;;13.20;80.30;;;;;;5083148;28;19924;-84
2023/03/21 12:04:06;;;;;;;;;;;13.10;80.10;;;;;;5068990;28;20360;-83
2023/03/21 12:06:35;;;;;;;;;;;13.10;79.50;;;;;;5079538;28;19923;-81
2023/03/21 12:09:04;;;;;;;;;;;13.10;79.10;;;;;;5076403;28;19965;-81
2023/03/21 12:11:36;;;;;;;;;;;13.10;77.50;;;;;;5069700;28;20309;-81
2023/03/21 12:14:06;;;;;;;;;;;13.10;78.00;;;;;;5093539;28;20013;-81
2023/03/21 12:16:42;;;;;;;;;;;13.10;79.20;;;;;;5091647;28;19916;-82
2023/03/21 12:19:14;;;;;;;;;;;13.10;78.00;;;;;;5072577;28;19912;-83
2023/03/21 12:21:55;;;;;;;;;;;13.10;78.40;;;;;;5094077;28;19967;-80
2023/03/21 12:24:23;;;;;;;;;;;13.30;78.40;;;;;;5067562;28;19973;-81
2023/03/21 12:26:52;;;;;;;;;;;13.40;77.80;;;;;;5083446;28;20012;-84
2023/03/21 12:29:32;;;;;;;;;;;13.60;77.70;;;;;;5087904;28;20424;-84
2023/03/21 12:32:36;;;;;;;;;;;13.70;76.50;;;;;;5091246;28;19951;-83
2023/03/21 12:35:08;;;;;;;;;;;13.70;77.20;;;;;;4994736;28;19926;-84
2023/03/21 12:37:47;;;;;;;;;;;13.80;75.40;;;;;;5010832;28;19971;-84
2023/03/21 12:40:12;;;;;;;;;;;13.70;76.30;;;;;;5050083;28;20347;-84
2023/03/21 12:42:38;;;;;;;;;;;13.60;76.40;;;;;;5067263;28;19917;-84
2023/03/21 12:45:19;;;;;;;;;;;13.50;75.00;;;;;;5065276;28;19958;-83
2023/03/21 12:47:51;;;;;;;;;;;13.40;75.70;;;;;;5066785;28;20351;-83
2023/03/21 12:50:36;;;;;;;;;;;13.30;75.20;;;;;;5087662;28;20018;-84
2023/03/21 12:53:25;;;;;;;;;;;13.20;75.70;;;;;;5074472;28;19939;-80
2023/03/21 12:55:52;;;;;;;;;;;13.30;75.40;;;;;;5071642;28;19973;-80
2023/03/21 12:58:21;;;;;;;;;;;13.40;75.70;;;;;;5068067;28;19927;-83
2023/03/21 13:00:50;;;;;;;;;;;13.30;75.10;;;;;;5066476;28;19916;-84
2023/03/21 13:03:21;;;;;;;;;;;13.30;73.90;;;;;;5081487;28;19966;-82
2023/03/21 13:05:48;;;;;;;;;;;13.10;74.40;;;;;;5080014;28;19929;-83
2023/03/21 13:08:33;;;;;;;;;;;13.20;74.10;;;;;;5061832;28;19951;-81
2023/03/21 13:10:59;;;;;;;;;;;13.10;74.50;;;;;;5067835;28;20375;-84
2023/03/21 13:13:28;;;;;;;;;;;12.90;76.40;;;;;;5089208;28;19912;-81
2023/03/21 13:16:02;;;;;;;;;;;12.80;77.40;;;;;;5063964;28;19931;-82
2023/03/21 13:18:31;;;;;;;;;;;12.70;77.60;;;;;;5082554;28;19934;-82
2023/03/21 13:20:59;;;;;;;;;;;12.60;77.50;;;;;;5080157;28;19916;-84
2023/03/21 13:23:32;;;;;;;;;;;12.60;77.50;;;;;;5072328;28;20843;-81
2023/03/21 13:25:57;;;;;;;;;;;12.80;77.70;;;;;;5062787;28;19957;-82
2023/03/21 13:28:27;;;;;;;;;;;12.80;77.30;;;;;;5082826;28;20204;-83
2023/03/21 13:31:12;;;;;;;;;;;12.90;77.30;;;;;;5063891;28;19920;-82
2023/03/21 13:33:43;;;;;;;;;;;13.00;76.50;;;;;;5061727;28;19913;-83
2023/03/21 13:36:19;;;;;;;;;;;13.10;76.00;;;;;;5063647;28;19920;-84
2023/03/21 13:38:49;;;;;;;;;;;13.10;75.80;;;;;;5072414;28;19916;-84
2023/03/21 13:41:17;;;;;;;;;;;13.10;76.20;;;;;;5068688;28;19927;-81
2023/03/21 13:44:01;;;;;;;;;;;13.10;75.90;;;;;;5090435;28;20375;-81
2023/03/21 13:46:27;;;;;;;;;;;13.10;74.20;;;;;;5086991;28;19916;-82
2023/03/21 13:48:52;;;;;;;;;;;13.10;75.10;;;;;;5063761;28;19966;-82
2023/03/21 13:51:42;;;;;;;;;;;13.10;75.60;;;;;;5067653;28;19924;-82
2023/03/21 13:54:07;;;;;;;;;;;13.20;74.70;;;;;;5056066;28;19918;-80
2023/03/21 13:56:42;;;;;;;;;;;13.10;74.90;;;;;;5079843;28;20006;-83
2023/03/21 13:59:08;;;;;;;;;;;13.00;74.50;;;;;;5084413;28;19912;-82
2023/03/21 14:01:34;;;;;;;;;;;13.00;74.20;;;;;;5072064;28;19920;-82
2023/03/21 14:04:02;;;;;;;;;;;13.10;73.20;;;;;;5069365;28;20018;-82
2023/03/21 14:06:51;;;;;;;;;;;13.20;73.50;;;;;;5061834;28;19919;-82
2023/03/21 14:09:20;;;;;;;;;;;13.30;73.80;;;;;;5066780;28;19916;-80
2023/03/21 14:11:47;;;;;;;;;;;13.10;73.70;;;;;;5072258;28;20031;-81
2023/03/21 14:14:13;;;;;;;;;;;13.00;73.80;;;;;;5070535;28;19923;-83
2023/03/21 14:16:39;;;;;;;;;;;13.10;74.40;;;;;;5098854;28;19943;-82
2023/03/21 14:19:05;;;;;;;;;;;13.10;74.30;;;;;;5097553;28;19938;-82
2023/03/21 14:21:33;;;;;;;;;;;13.30;72.90;;;;;;5069465;28;19912;-82
2023/03/21 14:24:03;;;;;;;;;;;13.20;73.10;;;;;;5076890;28;19912;-82